sensor_id;sensor_type;location;lat;lon;timestamp;P1;durP1;ratioP1;P2;durP2;ratioP2
17890;SDS011;9071;48.220;14.480;2023-03-04T00:02:34;95.10;;;41.00;;
17890;SDS011;9071;48.220;14.480;2023-03-04T00:07:36;102.60;;;40.47;;
17890;SDS011;9071;48.220;14.480;2023-03-04T00:12:40;96.80;;;38.73;;
17890;SDS011;9071;48.220;14.480;2023-03-04T00:17:42;89.03;;;38.57;;
17890;SDS011;9071;48.220;14.480;2023-03-04T00:22:45;91.60;;;39.20;;
17890;SDS011;9071;48.220;14.480;2023-03-04T00:27:48;86.63;;;37.80;;
17890;SDS011;9071;48.220;14.480;2023-03-04T00:32:51;103.97;;;40.73;;
17890;SDS011;9071;48.220;14.480;2023-03-04T00:37:53;97.13;;;39.67;;
17890;SDS011;9071;48.220;14.480;2023-03-04T00:42:56;95.37;;;39.33;;
17890;SDS011;9071;48.220;14.480;2023-03-04T00:47:58;97.27;;;38.97;;
17890;SDS011;9071;48.220;14.480;2023-03-04T00:53:00;91.23;;;40.00;;
17890;SDS011;9071;48.220;14.480;2023-03-04T00:58:04;101.80;;;40.13;;
17890;SDS011;9071;48.220;14.480;2023-03-04T01:03:06;99.07;;;39.93;;
17890;SDS011;9071;48.220;14.480;2023-03-04T01:08:08;106.97;;;41.97;;
17890;SDS011;9071;48.220;14.480;2023-03-04T01:13:12;97.93;;;39.00;;
17890;SDS011;9071;48.220;14.480;2023-03-04T01:18:14;97.40;;;38.63;;
17890;SDS011;9071;48.220;14.480;2023-03-04T01:23:16;80.67;;;33.43;;
17890;SDS011;9071;48.220;14.480;2023-03-04T01:28:19;83.70;;;35.87;;
17890;SDS011;9071;48.220;14.480;2023-03-04T01:33:21;94.73;;;36.63;;
17890;SDS011;9071;48.220;14.480;2023-03-04T01:38:23;80.53;;;36.47;;
17890;SDS011;9071;48.220;14.480;2023-03-04T01:43:27;89.17;;;36.20;;
17890;SDS011;9071;48.220;14.480;2023-03-04T01:48:31;85.97;;;35.17;;
17890;SDS011;9071;48.220;14.480;2023-03-04T01:53:36;86.33;;;36.97;;
17890;SDS011;9071;48.220;14.480;2023-03-04T01:58:39;91.03;;;35.60;;
17890;SDS011;9071;48.220;14.480;2023-03-04T02:03:42;92.23;;;35.97;;
17890;SDS011;9071;48.220;14.480;2023-03-04T02:08:44;89.40;;;35.43;;
17890;SDS011;9071;48.220;14.480;2023-03-04T02:13:47;88.30;;;36.77;;
17890;SDS011;9071;48.220;14.480;2023-03-04T02:18:49;85.07;;;36.53;;
17890;SDS011;9071;48.220;14.480;2023-03-04T02:23:54;92.17;;;36.27;;
17890;SDS011;9071;48.220;14.480;2023-03-04T02:29:05;85.00;;;34.13;;
17890;SDS011;9071;48.220;14.480;2023-03-04T02:34:10;93.60;;;38.00;;
17890;SDS011;9071;48.220;14.480;2023-03-04T02:39:20;85.00;;;36.70;;
17890;SDS011;9071;48.220;14.480;2023-03-04T02:44:27;83.50;;;34.00;;
17890;SDS011;9071;48.220;14.480;2023-03-04T02:49:30;85.23;;;35.10;;
17890;SDS011;9071;48.220;14.480;2023-03-04T02:54:34;84.73;;;35.83;;
17890;SDS011;9071;48.220;14.480;2023-03-04T02:59:39;78.47;;;34.83;;
17890;SDS011;9071;48.220;14.480;2023-03-04T03:04:42;80.20;;;35.87;;
17890;SDS011;9071;48.220;14.480;2023-03-04T03:09:44;87.17;;;35.80;;
17890;SDS011;9071;48.220;14.480;2023-03-04T03:14:47;82.20;;;35.47;;
17890;SDS011;9071;48.220;14.480;2023-03-04T03:19:49;85.00;;;35.53;;
17890;SDS011;9071;48.220;14.480;2023-03-04T03:24:51;92.60;;;37.27;;
17890;SDS011;9071;48.220;14.480;2023-03-04T03:29:55;79.00;;;35.03;;
17890;SDS011;9071;48.220;14.480;2023-03-04T03:34:57;86.73;;;35.90;;
17890;SDS011;9071;48.220;14.480;2023-03-04T03:39:59;86.00;;;36.27;;
17890;SDS011;9071;48.220;14.480;2023-03-04T03:45:03;87.50;;;36.13;;
17890;SDS011;9071;48.220;14.480;2023-03-04T03:50:06;85.00;;;37.27;;
17890;SDS011;9071;48.220;14.480;2023-03-04T03:55:09;78.43;;;34.63;;
17890;SDS011;9071;48.220;14.480;2023-03-04T04:00:13;86.50;;;34.97;;
17890;SDS011;9071;48.220;14.480;2023-03-04T04:05:16;87.43;;;35.00;;
17890;SDS011;9071;48.220;14.480;2023-03-04T04:10:18;79.97;;;34.67;;
17890;SDS011;9071;48.220;14.480;2023-03-04T04:15:22;84.70;;;35.13;;
17890;SDS011;9071;48.220;14.480;2023-03-04T04:20:24;88.83;;;34.83;;
17890;SDS011;9071;48.220;14.480;2023-03-04T04:25:26;80.83;;;34.43;;
17890;SDS011;9071;48.220;14.480;2023-03-04T04:30:30;87.87;;;34.97;;
17890;SDS011;9071;48.220;14.480;2023-03-04T04:35:32;93.07;;;35.90;;
17890;SDS011;9071;48.220;14.480;2023-03-04T04:40:37;87.17;;;34.03;;
17890;SDS011;9071;48.220;14.480;2023-03-04T04:45:41;84.83;;;35.60;;
17890;SDS011;9071;48.220;14.480;2023-03-04T04:50:43;83.17;;;34.53;;
17890;SDS011;9071;48.220;14.480;2023-03-04T04:55:45;81.60;;;35.53;;
17890;SDS011;9071;48.220;14.480;2023-03-04T05:00:49;94.27;;;36.50;;
17890;SDS011;9071;48.220;14.480;2023-03-04T05:05:51;104.77;;;37.50;;
17890;SDS011;9071;48.220;14.480;2023-03-04T05:10:53;113.07;;;41.13;;
17890;SDS011;9071;48.220;14.480;2023-03-04T05:15:56;111.80;;;42.70;;
17890;SDS011;9071;48.220;14.480;2023-03-04T05:20:59;115.10;;;41.43;;
17890;SDS011;9071;48.220;14.480;2023-03-04T05:26:03;116.10;;;43.20;;
17890;SDS011;9071;48.220;14.480;2023-03-04T05:31:08;123.37;;;45.87;;
17890;SDS011;9071;48.220;14.480;2023-03-04T05:36:10;132.67;;;47.50;;
17890;SDS011;9071;48.220;14.480;2023-03-04T05:41:12;135.00;;;47.13;;
17890;SDS011;9071;48.220;14.480;2023-03-04T05:46:16;142.60;;;50.17;;
17890;SDS011;9071;48.220;14.480;2023-03-04T05:51:24;151.70;;;50.97;;
17890;SDS011;9071;48.220;14.480;2023-03-04T05:56:26;148.97;;;51.47;;
17890;SDS011;9071;48.220;14.480;2023-03-04T06:01:31;186.83;;;60.60;;
17890;SDS011;9071;48.220;14.480;2023-03-04T06:06:33;171.37;;;58.07;;
17890;SDS011;9071;48.220;14.480;2023-03-04T06:11:35;197.13;;;63.60;;
17890;SDS011;9071;48.220;14.480;2023-03-04T06:16:38;206.23;;;70.07;;
17890;SDS011;9071;48.220;14.480;2023-03-04T06:21:40;209.07;;;68.93;;
17890;SDS011;9071;48.220;14.480;2023-03-04T06:26:42;219.40;;;70.00;;
17890;SDS011;9071;48.220;14.480;2023-03-04T06:31:46;185.30;;;63.30;;
17890;SDS011;9071;48.220;14.480;2023-03-04T06:36:48;188.20;;;69.50;;
17890;SDS011;9071;48.220;14.480;2023-03-04T06:41:50;159.63;;;65.27;;
17890;SDS011;9071;48.220;14.480;2023-03-04T06:46:54;118.13;;;52.40;;
17890;SDS011;9071;48.220;14.480;2023-03-04T06:51:56;87.23;;;40.43;;
17890;SDS011;9071;48.220;14.480;2023-03-04T06:56:58;71.37;;;34.83;;
17890;SDS011;9071;48.220;14.480;2023-03-04T07:02:01;74.93;;;35.97;;
17890;SDS011;9071;48.220;14.480;2023-03-04T07:07:03;67.53;;;34.00;;
17890;SDS011;9071;48.220;14.480;2023-03-04T07:12:05;80.87;;;39.07;;
17890;SDS011;9071;48.220;14.480;2023-03-04T07:17:09;70.63;;;35.07;;
17890;SDS011;9071;48.220;14.480;2023-03-04T07:22:11;74.37;;;36.80;;
17890;SDS011;9071;48.220;14.480;2023-03-04T07:32:50;67.33;;;33.33;;
17890;SDS011;9071;48.220;14.480;2023-03-04T07:37:52;67.03;;;32.87;;
17890;SDS011;9071;48.220;14.480;2023-03-04T07:42:54;60.13;;;31.40;;
17890;SDS011;9071;48.220;14.480;2023-03-04T07:47:58;65.90;;;31.97;;
17890;SDS011;9071;48.220;14.480;2023-03-04T07:53:00;60.87;;;29.50;;
17890;SDS011;9071;48.220;14.480;2023-03-04T07:58:02;54.97;;;27.73;;
17890;SDS011;9071;48.220;14.480;2023-03-04T08:03:06;53.83;;;27.63;;
17890;SDS011;9071;48.220;14.480;2023-03-04T08:08:08;56.73;;;27.80;;
17890;SDS011;9071;48.220;14.480;2023-03-04T08:13:10;50.93;;;27.40;;
17890;SDS011;9071;48.220;14.480;2023-03-04T08:18:13;52.90;;;25.97;;
17890;SDS011;9071;48.220;14.480;2023-03-04T08:23:15;47.87;;;25.40;;
17890;SDS011;9071;48.220;14.480;2023-03-04T08:28:17;46.30;;;25.10;;
17890;SDS011;9071;48.220;14.480;2023-03-04T08:33:21;46.67;;;24.83;;
17890;SDS011;9071;48.220;14.480;2023-03-04T08:38:23;44.67;;;24.60;;
17890;SDS011;9071;48.220;14.480;2023-03-04T08:43:25;46.03;;;24.53;;
17890;SDS011;9071;48.220;14.480;2023-03-04T08:48:29;48.57;;;26.13;;
17890;SDS011;9071;48.220;14.480;2023-03-04T08:53:32;47.67;;;23.67;;
17890;SDS011;9071;48.220;14.480;2023-03-04T08:58:35;42.90;;;22.30;;
17890;SDS011;9071;48.220;14.480;2023-03-04T09:03:39;42.73;;;22.20;;
17890;SDS011;9071;48.220;14.480;2023-03-04T09:08:41;43.70;;;22.63;;
17890;SDS011;9071;48.220;14.480;2023-03-04T09:13:44;41.67;;;21.70;;
17890;SDS011;9071;48.220;14.480;2023-03-04T09:18:47;40.63;;;21.37;;
17890;SDS011;9071;48.220;14.480;2023-03-04T09:23:49;36.30;;;18.93;;
17890;SDS011;9071;48.220;14.480;2023-03-04T09:28:52;41.00;;;19.70;;
17890;SDS011;9071;48.220;14.480;2023-03-04T09:33:57;37.77;;;19.50;;
17890;SDS011;9071;48.220;14.480;2023-03-04T09:39:00;38.40;;;20.07;;
17890;SDS011;9071;48.220;14.480;2023-03-04T09:44:03;39.53;;;20.27;;
17890;SDS011;9071;48.220;14.480;2023-03-04T09:49:15;39.37;;;19.07;;
17890;SDS011;9071;48.220;14.480;2023-03-04T09:54:22;37.93;;;19.60;;
17890;SDS011;9071;48.220;14.480;2023-03-04T09:59:39;29.87;;;15.67;;
17890;SDS011;9071;48.220;14.480;2023-03-04T10:04:50;28.53;;;14.57;;
17890;SDS011;9071;48.220;14.480;2023-03-04T10:09:56;27.90;;;13.97;;
17890;SDS011;9071;48.220;14.480;2023-03-04T10:15:04;28.17;;;14.27;;
17890;SDS011;9071;48.220;14.480;2023-03-04T10:20:18;24.03;;;12.37;;
17890;SDS011;9071;48.220;14.480;2023-03-04T10:25:23;21.07;;;11.70;;
17890;SDS011;9071;48.220;14.480;2023-03-04T10:30:30;20.73;;;10.70;;
17890;SDS011;9071;48.220;14.480;2023-03-04T10:35:42;23.33;;;12.67;;
17890;SDS011;9071;48.220;14.480;2023-03-04T10:40:48;26.93;;;13.13;;
17890;SDS011;9071;48.220;14.480;2023-03-04T10:45:51;26.57;;;13.60;;
17890;SDS011;9071;48.220;14.480;2023-03-04T10:51:09;24.97;;;12.33;;
17890;SDS011;9071;48.220;14.480;2023-03-04T10:56:33;24.10;;;13.30;;
17890;SDS011;9071;48.220;14.480;2023-03-04T11:01:37;24.30;;;13.90;;
17890;SDS011;9071;48.220;14.480;2023-03-04T11:06:41;25.30;;;13.60;;
17890;SDS011;9071;48.220;14.480;2023-03-04T11:11:43;28.10;;;14.53;;
17890;SDS011;9071;48.220;14.480;2023-03-04T11:16:51;23.03;;;14.00;;
17890;SDS011;9071;48.220;14.480;2023-03-04T11:21:56;29.83;;;15.03;;
17890;SDS011;9071;48.220;14.480;2023-03-04T11:27:01;30.10;;;15.90;;
17890;SDS011;9071;48.220;14.480;2023-03-04T11:32:07;30.47;;;15.93;;
17890;SDS011;9071;48.220;14.480;2023-03-04T11:37:16;28.57;;;16.50;;
17890;SDS011;9071;48.220;14.480;2023-03-04T11:42:25;29.60;;;17.60;;
17890;SDS011;9071;48.220;14.480;2023-03-04T11:47:37;30.60;;;17.33;;
17890;SDS011;9071;48.220;14.480;2023-03-04T11:52:49;32.10;;;16.10;;
17890;SDS011;9071;48.220;14.480;2023-03-04T11:58:08;27.17;;;16.40;;
17890;SDS011;9071;48.220;14.480;2023-03-04T12:03:26;31.33;;;16.30;;
17890;SDS011;9071;48.220;14.480;2023-03-04T12:08:46;28.43;;;15.90;;
17890;SDS011;9071;48.220;14.480;2023-03-04T12:19:24;35.07;;;17.87;;
17890;SDS011;9071;48.220;14.480;2023-03-04T12:30:24;30.20;;;17.03;;
17890;SDS011;9071;48.220;14.480;2023-03-04T12:35:44;34.00;;;18.57;;
17890;SDS011;9071;48.220;14.480;2023-03-04T12:40:52;38.93;;;20.67;;
17890;SDS011;9071;48.220;14.480;2023-03-04T12:46:06;37.93;;;19.27;;
17890;SDS011;9071;48.220;14.480;2023-03-04T12:51:22;31.23;;;18.00;;
17890;SDS011;9071;48.220;14.480;2023-03-04T12:56:32;32.27;;;19.50;;
17890;SDS011;9071;48.220;14.480;2023-03-04T13:01:42;38.23;;;18.80;;
17890;SDS011;9071;48.220;14.480;2023-03-04T13:06:52;31.87;;;18.00;;
17890;SDS011;9071;48.220;14.480;2023-03-04T13:12:13;35.93;;;18.33;;
17890;SDS011;9071;48.220;14.480;2023-03-04T13:22:48;29.87;;;17.13;;
17890;SDS011;9071;48.220;14.480;2023-03-04T13:33:44;30.07;;;16.97;;
17890;SDS011;9071;48.220;14.480;2023-03-04T13:38:56;28.23;;;15.97;;
17890;SDS011;9071;48.220;14.480;2023-03-04T13:44:01;31.40;;;18.00;;
17890;SDS011;9071;48.220;14.480;2023-03-04T13:49:14;31.50;;;17.70;;
17890;SDS011;9071;48.220;14.480;2023-03-04T13:54:20;30.03;;;16.57;;
17890;SDS011;9071;48.220;14.480;2023-03-04T13:59:28;31.50;;;19.13;;
17890;SDS011;9071;48.220;14.480;2023-03-04T14:04:35;31.70;;;16.97;;
17890;SDS011;9071;48.220;14.480;2023-03-04T14:09:38;30.93;;;15.70;;
17890;SDS011;9071;48.220;14.480;2023-03-04T14:14:41;26.90;;;15.17;;
17890;SDS011;9071;48.220;14.480;2023-03-04T14:19:49;34.30;;;16.57;;
17890;SDS011;9071;48.220;14.480;2023-03-04T14:24:55;27.90;;;16.60;;
17890;SDS011;9071;48.220;14.480;2023-03-04T14:29:59;30.43;;;17.27;;
17890;SDS011;9071;48.220;14.480;2023-03-04T14:35:05;28.30;;;15.87;;
17890;SDS011;9071;48.220;14.480;2023-03-04T14:40:09;32.23;;;17.03;;
17890;SDS011;9071;48.220;14.480;2023-03-04T14:45:20;30.63;;;16.50;;
17890;SDS011;9071;48.220;14.480;2023-03-04T14:50:25;30.80;;;16.97;;
17890;SDS011;9071;48.220;14.480;2023-03-04T14:55:27;41.37;;;23.90;;
17890;SDS011;9071;48.220;14.480;2023-03-04T15:00:30;29.57;;;15.93;;
17890;SDS011;9071;48.220;14.480;2023-03-04T15:05:36;30.83;;;16.10;;
17890;SDS011;9071;48.220;14.480;2023-03-04T15:10:38;22.83;;;13.97;;
17890;SDS011;9071;48.220;14.480;2023-03-04T15:15:58;32.53;;;16.70;;
17890;SDS011;9071;48.220;14.480;2023-03-04T15:21:03;36.17;;;18.60;;
17890;SDS011;9071;48.220;14.480;2023-03-04T15:26:25;26.10;;;14.63;;
17890;SDS011;9071;48.220;14.480;2023-03-04T15:31:27;26.30;;;14.30;;
17890;SDS011;9071;48.220;14.480;2023-03-04T15:36:31;26.20;;;13.37;;
17890;SDS011;9071;48.220;14.480;2023-03-04T15:41:33;30.00;;;13.93;;
17890;SDS011;9071;48.220;14.480;2023-03-04T15:46:35;21.70;;;12.17;;
17890;SDS011;9071;48.220;14.480;2023-03-04T15:51:38;23.13;;;11.33;;
17890;SDS011;9071;48.220;14.480;2023-03-04T15:56:40;19.23;;;11.20;;
17890;SDS011;9071;48.220;14.480;2023-03-04T16:01:43;21.97;;;10.77;;
17890;SDS011;9071;48.220;14.480;2023-03-04T16:06:47;18.50;;;9.87;;
17890;SDS011;9071;48.220;14.480;2023-03-04T16:11:50;21.47;;;10.70;;
17890;SDS011;9071;48.220;14.480;2023-03-04T16:16:55;17.53;;;10.20;;
17890;SDS011;9071;48.220;14.480;2023-03-04T16:21:58;19.77;;;11.27;;
17890;SDS011;9071;48.220;14.480;2023-03-04T16:27:01;21.83;;;11.33;;
17890;SDS011;9071;48.220;14.480;2023-03-04T16:32:04;21.77;;;11.07;;
17890;SDS011;9071;48.220;14.480;2023-03-04T16:37:12;24.17;;;11.27;;
17890;SDS011;9071;48.220;14.480;2023-03-04T16:42:18;20.53;;;11.33;;
17890;SDS011;9071;48.220;14.480;2023-03-04T16:47:21;27.43;;;13.70;;
17890;SDS011;9071;48.220;14.480;2023-03-04T16:52:26;24.13;;;12.83;;
17890;SDS011;9071;48.220;14.480;2023-03-04T16:57:31;20.10;;;10.63;;
17890;SDS011;9071;48.220;14.480;2023-03-04T17:02:33;22.70;;;10.80;;
17890;SDS011;9071;48.220;14.480;2023-03-04T17:07:36;21.27;;;10.37;;
17890;SDS011;9071;48.220;14.480;2023-03-04T17:12:38;23.43;;;11.00;;
17890;SDS011;9071;48.220;14.480;2023-03-04T17:17:41;23.50;;;11.27;;
17890;SDS011;9071;48.220;14.480;2023-03-04T17:22:45;23.93;;;13.83;;
17890;SDS011;9071;48.220;14.480;2023-03-04T17:27:47;115.33;;;51.90;;
17890;SDS011;9071;48.220;14.480;2023-03-04T17:32:50;34.80;;;17.57;;
17890;SDS011;9071;48.220;14.480;2023-03-04T17:37:53;245.13;;;85.17;;
17890;SDS011;9071;48.220;14.480;2023-03-04T17:42:55;46.87;;;20.43;;
17890;SDS011;9071;48.220;14.480;2023-03-04T17:47:57;22.80;;;11.63;;
17890;SDS011;9071;48.220;14.480;2023-03-04T17:53:01;25.47;;;11.40;;
17890;SDS011;9071;48.220;14.480;2023-03-04T17:58:03;44.73;;;19.20;;
17890;SDS011;9071;48.220;14.480;2023-03-04T18:03:05;24.43;;;11.97;;
17890;SDS011;9071;48.220;14.480;2023-03-04T18:08:12;26.07;;;13.10;;
17890;SDS011;9071;48.220;14.480;2023-03-04T18:13:14;28.73;;;12.63;;
17890;SDS011;9071;48.220;14.480;2023-03-04T18:18:17;24.77;;;12.37;;
17890;SDS011;9071;48.220;14.480;2023-03-04T18:23:20;26.53;;;13.67;;
17890;SDS011;9071;48.220;14.480;2023-03-04T18:28:22;31.17;;;15.37;;
17890;SDS011;9071;48.220;14.480;2023-03-04T18:33:25;31.80;;;16.00;;
17890;SDS011;9071;48.220;14.480;2023-03-04T18:38:29;42.13;;;21.30;;
17890;SDS011;9071;48.220;14.480;2023-03-04T18:43:32;75.97;;;31.47;;
17890;SDS011;9071;48.220;14.480;2023-03-04T18:48:35;32.77;;;15.17;;
17890;SDS011;9071;48.220;14.480;2023-03-04T18:53:41;64.27;;;24.60;;
17890;SDS011;9071;48.220;14.480;2023-03-04T18:58:43;70.17;;;28.20;;
17890;SDS011;9071;48.220;14.480;2023-03-04T19:03:47;42.53;;;20.70;;
17890;SDS011;9071;48.220;14.480;2023-03-04T19:08:51;37.57;;;16.87;;
17890;SDS011;9071;48.220;14.480;2023-03-04T19:13:54;38.00;;;17.73;;
17890;SDS011;9071;48.220;14.480;2023-03-04T19:18:56;36.60;;;16.47;;
17890;SDS011;9071;48.220;14.480;2023-03-04T19:24:00;33.77;;;16.67;;
17890;SDS011;9071;48.220;14.480;2023-03-04T19:29:02;35.23;;;15.77;;
17890;SDS011;9071;48.220;14.480;2023-03-04T19:34:05;32.53;;;16.00;;
17890;SDS011;9071;48.220;14.480;2023-03-04T19:39:09;32.80;;;16.53;;
17890;SDS011;9071;48.220;14.480;2023-03-04T19:44:13;33.57;;;16.20;;
17890;SDS011;9071;48.220;14.480;2023-03-04T19:49:15;38.07;;;16.10;;
17890;SDS011;9071;48.220;14.480;2023-03-04T19:54:18;33.50;;;16.03;;
17890;SDS011;9071;48.220;14.480;2023-03-04T19:59:21;42.40;;;18.97;;
17890;SDS011;9071;48.220;14.480;2023-03-04T20:04:23;33.60;;;15.50;;
17890;SDS011;9071;48.220;14.480;2023-03-04T20:09:26;39.73;;;17.83;;
17890;SDS011;9071;48.220;14.480;2023-03-04T20:14:29;37.27;;;16.87;;
17890;SDS011;9071;48.220;14.480;2023-03-04T20:19:32;36.10;;;16.70;;
17890;SDS011;9071;48.220;14.480;2023-03-04T20:24:36;36.93;;;15.83;;
17890;SDS011;9071;48.220;14.480;2023-03-04T20:29:38;36.23;;;15.83;;
17890;SDS011;9071;48.220;14.480;2023-03-04T20:34:40;37.97;;;17.17;;
17890;SDS011;9071;48.220;14.480;2023-03-04T20:39:43;41.63;;;21.07;;
17890;SDS011;9071;48.220;14.480;2023-03-04T20:44:45;46.90;;;21.43;;
17890;SDS011;9071;48.220;14.480;2023-03-04T20:49:47;34.10;;;15.77;;
17890;SDS011;9071;48.220;14.480;2023-03-04T20:54:51;36.47;;;16.67;;
17890;SDS011;9071;48.220;14.480;2023-03-04T20:59:53;35.37;;;15.87;;
17890;SDS011;9071;48.220;14.480;2023-03-04T21:04:55;36.00;;;16.33;;
17890;SDS011;9071;48.220;14.480;2023-03-04T21:09:59;37.27;;;17.33;;
17890;SDS011;9071;48.220;14.480;2023-03-04T21:15:02;29.40;;;14.53;;
17890;SDS011;9071;48.220;14.480;2023-03-04T21:20:05;34.13;;;15.33;;
17890;SDS011;9071;48.220;14.480;2023-03-04T21:25:10;35.20;;;16.50;;
17890;SDS011;9071;48.220;14.480;2023-03-04T21:30:12;31.90;;;14.63;;
17890;SDS011;9071;48.220;14.480;2023-03-04T21:35:14;33.30;;;15.30;;
17890;SDS011;9071;48.220;14.480;2023-03-04T21:40:19;43.70;;;19.43;;
17890;SDS011;9071;48.220;14.480;2023-03-04T21:45:21;40.30;;;19.20;;
17890;SDS011;9071;48.220;14.480;2023-03-04T21:50:23;44.80;;;23.30;;
17890;SDS011;9071;48.220;14.480;2023-03-04T21:55:28;36.37;;;17.03;;
17890;SDS011;9071;48.220;14.480;2023-03-04T22:00:30;30.03;;;14.00;;
17890;SDS011;9071;48.220;14.480;2023-03-04T22:05:36;34.37;;;16.17;;
17890;SDS011;9071;48.220;14.480;2023-03-04T22:10:41;34.83;;;16.17;;
17890;SDS011;9071;48.220;14.480;2023-03-04T22:15:44;34.00;;;15.07;;
17890;SDS011;9071;48.220;14.480;2023-03-04T22:20:46;32.63;;;15.40;;
17890;SDS011;9071;48.220;14.480;2023-03-04T22:25:50;32.73;;;15.17;;
17890;SDS011;9071;48.220;14.480;2023-03-04T22:30:53;36.00;;;15.67;;
17890;SDS011;9071;48.220;14.480;2023-03-04T22:35:55;32.00;;;15.17;;
17890;SDS011;9071;48.220;14.480;2023-03-04T22:40:59;30.97;;;14.97;;
17890;SDS011;9071;48.220;14.480;2023-03-04T22:46:05;28.90;;;14.80;;
17890;SDS011;9071;48.220;14.480;2023-03-04T22:51:12;44.47;;;22.50;;
17890;SDS011;9071;48.220;14.480;2023-03-04T22:56:15;46.77;;;23.43;;
17890;SDS011;9071;48.220;14.480;2023-03-04T23:01:18;41.90;;;23.73;;
17890;SDS011;9071;48.220;14.480;2023-03-04T23:06:21;28.83;;;14.33;;
17890;SDS011;9071;48.220;14.480;2023-03-04T23:11:27;32.77;;;16.23;;
17890;SDS011;9071;48.220;14.480;2023-03-04T23:16:29;32.73;;;15.17;;
17890;SDS011;9071;48.220;14.480;2023-03-04T23:21:32;31.03;;;15.23;;
17890;SDS011;9071;48.220;14.480;2023-03-04T23:26:37;30.30;;;14.70;;
17890;SDS011;9071;48.220;14.480;2023-03-04T23:31:40;31.87;;;15.73;;
17890;SDS011;9071;48.220;14.480;2023-03-04T23:36:43;33.73;;;17.47;;
17890;SDS011;9071;48.220;14.480;2023-03-04T23:41:46;28.80;;;14.30;;
17890;SDS011;9071;48.220;14.480;2023-03-04T23:46:48;32.77;;;15.20;;
17890;SDS011;9071;48.220;14.480;2023-03-04T23:51:50;30.20;;;15.17;;
17890;SDS011;9071;48.220;14.480;2023-03-04T23:56:54;35.50;;;18.17;;
